createdAt,value
2019-01-25T00:00:42.342Z,0.82
2019-01-25T00:03:17.889Z,0.73
2019-01-25T00:05:42.461Z,0.74
2019-01-25T00:08:06.941Z,0.85
2019-01-25T00:10:31.383Z,0.85
2019-01-25T00:12:55.804Z,0.91
2019-01-25T00:15:20.283Z,0.91
2019-01-25T00:17:44.791Z,0.55
2019-01-25T00:20:21.009Z,0.73
2019-01-25T00:22:45.517Z,0.77
2019-01-25T00:28:07.056Z,0.81
2019-01-25T00:30:31.479Z,0.83
2019-01-25T00:32:55.883Z,0.81
2019-01-25T00:35:20.327Z,0.76
2019-01-25T00:37:44.726Z,0.82
2019-01-25T00:43:15.090Z,0.83
2019-01-25T00:48:36.685Z,0.67
2019-01-25T00:51:01.106Z,0.81
2019-01-25T00:53:25.517Z,0.78
2019-01-25T00:55:50.102Z,0.68
2019-01-25T00:58:14.524Z,0.71
2019-01-25T01:00:39.094Z,0.76
2019-01-25T01:03:17.282Z,0.73
2019-01-25T01:05:52.924Z,0.78
2019-01-25T01:08:17.340Z,0.75
2019-01-25T01:10:41.781Z,0.77
2019-01-25T01:13:06.261Z,0.77
2019-01-25T01:15:30.762Z,0.78
2019-01-25T01:17:55.173Z,0.67
2019-01-25T01:20:40.438Z,0.71
2019-01-25T01:23:04.931Z,0.64
2019-01-25T01:25:29.322Z,0.60
2019-01-25T01:27:53.742Z,0.67
2019-01-25T01:30:37.498Z,0.60
2019-01-25T01:33:01.922Z,0.68
2019-01-25T01:35:26.317Z,0.76
2019-01-25T01:37:51.290Z,0.68
2019-01-25T01:40:35.056Z,0.62
2019-01-25T01:45:54.036Z,0.66
2019-01-25T01:48:18.458Z,0.71
2019-01-25T01:50:42.886Z,0.56
2019-01-25T01:53:07.296Z,0.62
2019-01-25T01:55:31.723Z,0.68
2019-01-25T01:58:15.490Z,0.73
2019-01-25T02:00:39.917Z,0.75
2019-01-25T02:03:04.379Z,0.70
2019-01-25T02:05:28.844Z,0.54
2019-01-25T02:08:04.272Z,0.60
2019-01-25T02:10:29.874Z,0.58
2019-01-25T02:13:05.250Z,0.59
2019-01-25T02:15:29.643Z,0.57
2019-01-25T02:20:51.418Z,0.67
2019-01-25T02:23:16.660Z,0.54
2019-01-25T02:25:53.004Z,0.63
2019-01-25T02:28:17.413Z,0.59
2019-01-25T02:30:41.861Z,0.55
2019-01-25T02:33:06.277Z,0.42
2019-01-25T02:35:30.659Z,0.49
2019-01-25T02:37:55.165Z,0.53
2019-01-25T02:43:16.749Z,0.60
2019-01-25T02:45:41.149Z,0.49
2019-01-25T02:48:05.703Z,0.55
2019-01-25T02:50:30.129Z,0.57
2019-01-25T02:52:54.566Z,0.65
2019-01-25T02:58:15.847Z,0.43
2019-01-25T03:00:40.248Z,0.58
2019-01-25T03:03:04.898Z,0.64
2019-01-25T03:05:29.294Z,0.51
2019-01-25T03:10:50.852Z,0.59
2019-01-25T03:13:15.271Z,0.58
2019-01-25T03:15:39.697Z,0.51
2019-01-25T03:18:15.721Z,0.46
2019-01-25T03:20:40.115Z,0.51
2019-01-25T03:23:04.591Z,0.52
2019-01-25T03:25:29.017Z,0.58
2019-01-25T03:27:53.494Z,0.59
2019-01-25T03:35:50.643Z,0.57
2019-01-25T03:38:15.065Z,0.56
2019-01-25T03:40:39.476Z,0.51
2019-01-25T03:43:03.900Z,0.50
2019-01-25T03:45:49.085Z,0.48
2019-01-25T03:48:13.584Z,0.44
2019-01-25T03:50:37.984Z,0.56
2019-01-25T03:53:02.408Z,0.45
2019-01-25T03:55:26.964Z,0.43
2019-01-25T03:57:51.399Z,0.45
2019-01-25T04:00:35.148Z,0.45
2019-01-25T04:02:59.765Z,0.46
2019-01-25T04:05:24.187Z,0.43
2019-01-25T04:07:59.998Z,0.34
2019-01-25T04:13:21.899Z,0.31
2019-01-25T04:15:46.306Z,0.41
2019-01-25T04:18:10.773Z,0.47
2019-01-25T04:20:35.199Z,0.37
2019-01-25T04:22:59.671Z,0.43
2019-01-25T04:28:20.653Z,0.42
2019-01-25T04:30:45.067Z,0.39
2019-01-25T04:33:09.470Z,0.42
2019-01-25T04:35:35.453Z,0.33
2019-01-25T04:41:11.598Z,0.44
2019-01-25T04:43:37.844Z,0.51
2019-01-25T04:46:02.300Z,0.45
2019-01-25T04:48:26.700Z,0.54
2019-01-25T04:50:51.106Z,0.50
2019-01-25T04:53:15.524Z,0.48
2019-01-25T04:55:39.921Z,0.47
2019-01-25T04:58:25.161Z,0.52
2019-01-25T05:00:49.676Z,0.47
2019-01-25T05:03:14.343Z,0.51
2019-01-25T05:05:38.812Z,0.46
2019-01-25T05:10:59.656Z,0.49
2019-01-25T05:13:24.080Z,0.36
2019-01-25T05:15:48.478Z,0.52
2019-01-25T05:18:12.941Z,0.46
2019-01-25T05:20:37.432Z,0.47
2019-01-25T05:25:58.425Z,0.34
2019-01-25T05:28:22.830Z,0.47
2019-01-25T05:31:06.605Z,0.38
2019-01-25T05:33:31.016Z,0.34
2019-01-25T05:35:55.411Z,0.38
2019-01-25T05:38:19.835Z,0.42
2019-01-25T05:40:49.663Z,0.29
2019-01-25T05:43:14.125Z,0.33
2019-01-25T05:48:35.248Z,0.53
2019-01-25T05:51:18.984Z,0.46
2019-01-25T05:59:36.553Z,0.48
2019-01-25T06:02:00.984Z,0.35
2019-01-25T06:04:50.225Z,0.38
2019-01-25T06:07:14.650Z,0.43
2019-01-25T06:09:39.057Z,0.51
2019-01-25T06:12:03.502Z,0.43
2019-01-25T06:14:27.888Z,0.44
2019-01-25T06:16:52.317Z,0.38
2019-01-25T06:19:16.741Z,0.40
2019-01-25T06:21:41.144Z,0.31
2019-01-25T06:24:05.558Z,0.33
2019-01-25T06:26:30.022Z,0.38
2019-01-25T06:28:54.463Z,0.22
2019-01-25T06:34:16.123Z,0.45
2019-01-25T06:36:40.527Z,0.35
2019-01-25T06:42:02.085Z,0.12
2019-01-25T06:44:26.498Z,0.31
2019-01-25T06:46:50.948Z,0.28
2019-01-25T06:49:15.368Z,0.34
2019-01-25T06:51:39.778Z,0.38
2019-01-25T06:54:15.991Z,0.38
2019-01-25T06:56:40.400Z,0.47
2019-01-25T06:59:23.997Z,0.43
2019-01-25T07:02:07.519Z,0.45
2019-01-25T07:04:31.934Z,0.32
2019-01-25T07:06:56.355Z,0.32
2019-01-25T07:09:26.088Z,0.41
2019-01-25T07:11:51.758Z,0.34
2019-01-25T07:14:22.391Z,0.35
2019-01-25T07:16:46.791Z,0.28
2019-01-25T07:19:11.246Z,0.33
2019-01-25T07:21:35.654Z,0.37
2019-01-25T07:24:00.071Z,0.34
2019-01-25T07:26:24.508Z,0.31
2019-01-25T07:28:48.903Z,0.46
2019-01-25T07:31:13.387Z,0.42
2019-01-25T07:33:37.820Z,0.31
2019-01-25T07:36:02.308Z,0.38
2019-01-25T07:38:26.805Z,0.30
2019-01-25T07:40:51.216Z,0.43
2019-01-25T07:43:15.613Z,0.50
2019-01-25T07:45:40.017Z,0.46
2019-01-25T07:48:04.435Z,0.48
2019-01-25T07:50:28.849Z,0.50
2019-01-25T07:52:53.246Z,0.41
2019-01-25T07:55:17.709Z,0.42
2019-01-25T08:00:18.025Z,0.35
2019-01-25T08:02:42.479Z,0.45
2019-01-25T08:08:03.993Z,0.39
2019-01-25T08:10:28.402Z,0.52
2019-01-25T08:12:52.837Z,0.56
2019-01-25T08:18:14.713Z,0.48
2019-01-25T08:20:39.079Z,0.52
2019-01-25T08:23:15.441Z,0.46
2019-01-25T08:25:39.878Z,0.56
2019-01-25T08:28:09.533Z,0.63
2019-01-25T08:30:33.969Z,0.67
2019-01-25T08:32:58.341Z,0.65
2019-01-25T08:35:22.914Z,0.72
2019-01-25T08:37:52.991Z,0.26
2019-01-25T08:43:13.800Z,0.80
2019-01-25T08:45:38.231Z,0.65
2019-01-25T08:48:02.651Z,0.21
2019-01-25T08:53:23.661Z,0.13
2019-01-25T08:55:48.097Z,-0.02
2019-01-25T08:58:12.520Z,0.50
2019-01-25T09:00:36.907Z,0.64
2019-01-25T09:03:01.329Z,0.26
2019-01-25T09:08:23.925Z,0.77
2019-01-25T09:10:48.319Z,0.84
2019-01-25T09:13:12.748Z,0.91
2019-01-25T09:15:37.152Z,0.63
2019-01-25T09:18:01.558Z,0.44
2019-01-25T09:20:33.320Z,-0.10
2019-01-25T09:22:57.726Z,-0.01
2019-01-25T09:25:22.231Z,0.00
2019-01-25T09:30:43.499Z,0.30
2019-01-25T09:33:07.908Z,0.21
2019-01-25T09:35:32.310Z,0.45
2019-01-25T09:37:56.739Z,0.41
2019-01-25T09:43:18.167Z,0.64
2019-01-25T09:45:42.559Z,0.55
2019-01-25T09:48:07.067Z,0.33
2019-01-25T09:50:31.479Z,0.12
2019-01-25T09:52:55.935Z,0.85
2019-01-25T09:55:39.697Z,0.36
2019-01-25T10:03:57.311Z,0.48
2019-01-25T10:06:34.343Z,0.45
2019-01-25T10:08:58.732Z,0.09
2019-01-25T10:11:23.170Z,0.27
2019-01-25T10:13:47.569Z,0.11
2019-01-25T10:16:11.998Z,-0.16
2019-01-25T10:18:36.420Z,0.17
2019-01-25T10:21:00.823Z,0.57
2019-01-25T10:23:25.244Z,0.55
2019-01-25T10:25:49.642Z,0.17
2019-01-25T10:28:14.111Z,-0.10
2019-01-25T10:30:38.595Z,0.24
2019-01-25T10:33:03.049Z,0.11
2019-01-25T10:35:27.464Z,0.08
2019-01-25T10:40:48.587Z,0.36
2019-01-25T10:43:12.997Z,0.48
2019-01-25T10:45:56.742Z,0.22
2019-01-25T10:48:21.188Z,-0.13
2019-01-25T10:50:45.599Z,0.48
2019-01-25T10:53:10.069Z,0.94
2019-01-25T10:55:34.631Z,0.45
2019-01-25T10:57:59.102Z,0.73
2019-01-25T11:00:23.583Z,0.53
2019-01-25T11:02:48.053Z,0.68
2019-01-25T11:05:33.276Z,0.78
2019-01-25T11:07:57.745Z,0.81
2019-01-25T11:10:22.177Z,0.25
2019-01-25T11:12:46.651Z,0.34
2019-01-25T11:18:07.798Z,-0.17
2019-01-25T11:20:32.273Z,-0.01
2019-01-25T11:22:56.691Z,-0.30
2019-01-25T11:25:41.475Z,-0.32
2019-01-25T11:28:05.991Z,0.10
2019-01-25T11:30:30.427Z,-0.40
2019-01-25T11:32:54.843Z,-0.61
2019-01-25T11:35:19.354Z,-0.78
2019-01-25T11:37:43.761Z,-0.53
2019-01-25T11:43:08.750Z,-1.22
2019-01-25T11:45:54.267Z,-1.35
2019-01-25T11:48:16.055Z,-1.02
2019-01-25T11:50:45.768Z,-0.74
2019-01-25T11:53:10.201Z,-1.10
2019-01-25T11:58:31.856Z,-0.56
2019-01-25T12:00:56.256Z,-1.06
2019-01-25T12:03:20.681Z,-1.08
2019-01-25T12:05:45.101Z,-0.81
2019-01-25T12:08:09.606Z,-0.78
2019-01-25T12:10:34.038Z,-0.72
2019-01-25T12:12:58.460Z,-0.27
2019-01-25T12:15:23.060Z,-0.45
2019-01-25T12:17:47.635Z,-0.61
2019-01-25T12:20:32.856Z,-0.69
2019-01-25T12:22:57.345Z,-0.61
2019-01-25T12:25:21.752Z,0.19
2019-01-25T12:27:46.181Z,-0.41
2019-01-25T12:30:30.897Z,-0.48
2019-01-25T12:32:55.406Z,0.09
2019-01-25T12:35:19.845Z,-0.12
2019-01-25T12:37:44.292Z,-0.27
2019-01-25T12:40:28.032Z,-0.53
2019-01-25T12:42:52.460Z,-0.18
2019-01-25T12:48:13.736Z,-0.56
2019-01-25T12:53:34.986Z,-1.27
2019-01-25T12:55:59.404Z,-0.45
2019-01-25T12:58:23.878Z,-0.45
2019-01-25T13:03:23.587Z,-0.72
2019-01-25T13:05:48.024Z,-0.46
2019-01-25T13:08:12.438Z,-0.89
2019-01-25T13:10:36.887Z,-0.52
2019-01-25T13:13:01.298Z,-0.83
2019-01-25T13:15:25.868Z,-0.74
2019-01-25T13:18:09.696Z,-0.78
2019-01-25T13:23:14.675Z,-0.74
2019-01-25T13:25:39.102Z,-1.16
2019-01-25T13:28:03.505Z,-0.86
2019-01-25T13:33:25.017Z,-1.19
2019-01-25T13:35:49.450Z,-1.22
2019-01-25T13:38:13.899Z,-1.14
2019-01-25T13:40:38.305Z,-1.32
2019-01-25T13:43:02.763Z,-0.60
2019-01-25T13:45:27.253Z,-0.67
2019-01-25T13:48:02.996Z,-0.81
2019-01-25T13:53:24.579Z,-1.09
2019-01-25T13:58:25.414Z,-1.19
2019-01-25T14:00:49.835Z,-1.08
2019-01-25T14:03:14.236Z,-1.06
2019-01-25T14:05:38.675Z,-0.64
2019-01-25T14:08:15.761Z,-0.96
2019-01-25T14:13:37.051Z,-0.97
2019-01-25T14:16:01.470Z,-1.14
2019-01-25T14:18:25.924Z,-1.46
2019-01-25T14:20:50.353Z,-1.24
2019-01-25T14:23:25.949Z,-1.25
2019-01-25T14:25:50.361Z,-1.52
2019-01-25T14:28:14.785Z,-1.06
2019-01-25T14:33:36.265Z,-2.06
2019-01-25T14:36:00.781Z,-1.42
2019-01-25T14:38:25.247Z,-1.63
2019-01-25T14:40:49.685Z,-1.40
2019-01-25T14:43:14.087Z,-1.12
2019-01-25T14:45:38.497Z,-1.68
2019-01-25T14:50:59.726Z,-1.48
2019-01-25T14:53:24.159Z,-1.07
2019-01-25T14:55:48.580Z,-1.52
2019-01-25T14:58:13.046Z,-1.10
2019-01-25T15:00:37.532Z,-1.29
2019-01-25T15:03:01.981Z,-0.89
2019-01-25T15:05:26.397Z,-0.83
2019-01-25T15:07:50.807Z,-0.87
2019-01-25T15:10:35.113Z,-0.58
2019-01-25T15:13:18.642Z,-0.38
2019-01-25T15:15:43.068Z,-0.77
2019-01-25T15:18:07.615Z,-1.04
2019-01-25T15:20:32.061Z,-0.76
2019-01-25T15:22:56.465Z,-1.12
2019-01-25T15:27:57.425Z,-0.67
2019-01-25T15:33:18.413Z,-0.27
2019-01-25T15:35:42.870Z,-0.83
2019-01-25T15:38:07.293Z,-0.85
2019-01-25T15:40:31.992Z,-0.75
2019-01-25T15:42:56.476Z,-0.88
2019-01-25T15:45:41.705Z,-0.32
2019-01-25T15:48:06.204Z,-0.89
2019-01-25T15:53:27.582Z,-0.84
2019-01-25T15:55:52.002Z,-0.70
2019-01-25T15:58:16.477Z,-1.06
2019-01-25T16:00:40.890Z,-0.64
2019-01-25T16:03:05.827Z,-0.75
2019-01-25T16:05:30.265Z,-0.81
2019-01-25T16:08:15.457Z,-0.57
2019-01-25T16:10:39.906Z,-0.17
2019-01-25T16:13:16.958Z,-0.28
2019-01-25T16:15:41.387Z,-0.15
2019-01-25T16:18:05.840Z,0.12
2019-01-25T16:20:30.366Z,-0.46
2019-01-25T16:23:15.587Z,-0.15
2019-01-25T16:25:40.029Z,-0.10
2019-01-25T16:30:40.371Z,-0.57
2019-01-25T16:33:05.032Z,-0.06
2019-01-25T16:35:29.687Z,0.12
2019-01-25T16:37:54.177Z,-0.30
2019-01-25T16:40:37.966Z,0.06
2019-01-25T16:43:02.388Z,-0.17
2019-01-25T16:45:46.242Z,-0.25
2019-01-25T16:48:10.900Z,-0.37
2019-01-25T16:53:31.939Z,-0.55
2019-01-25T16:55:56.385Z,-0.42
2019-01-25T17:00:56.961Z,-0.73
2019-01-25T17:03:21.365Z,-0.39
2019-01-25T17:05:45.860Z,-0.55
2019-01-25T17:08:10.300Z,-0.26
2019-01-25T17:10:34.888Z,-0.34
2019-01-25T17:12:59.350Z,-0.21
2019-01-25T17:15:23.918Z,-0.61
2019-01-25T17:17:48.334Z,0.11
2019-01-25T17:20:32.179Z,-0.22
2019-01-25T17:22:56.876Z,0.17
2019-01-25T17:25:32.726Z,-0.35
2019-01-25T17:27:57.146Z,-0.29
2019-01-25T17:30:42.795Z,-0.15
2019-01-25T17:33:16.339Z,-0.17
2019-01-25T17:35:40.794Z,-0.44
2019-01-25T17:38:05.372Z,-0.38
2019-01-25T17:40:50.651Z,-0.27
2019-01-25T17:43:15.154Z,-0.55
2019-01-25T17:45:39.603Z,-0.82
2019-01-25T17:48:14.924Z,-0.32
2019-01-25T17:50:39.333Z,0.15
2019-01-25T17:53:04.206Z,-0.05
2019-01-25T17:55:28.698Z,-0.43
2019-01-25T17:57:53.138Z,-0.54
2019-01-25T18:00:56.073Z,-0.48
2019-01-25T18:03:20.566Z,0.22
2019-01-25T18:05:45.048Z,-0.36
2019-01-25T18:10:45.608Z,0.09
2019-01-25T18:13:10.058Z,0.18
2019-01-25T18:15:34.652Z,-0.32
2019-01-25T18:17:59.133Z,-0.08
2019-01-25T18:23:20.732Z,-0.25
2019-01-25T18:25:57.202Z,-0.29
2019-01-25T18:28:41.830Z,0.22
2019-01-25T18:31:18.402Z,-0.87
2019-01-25T18:33:42.840Z,-0.85
2019-01-25T18:36:07.262Z,-0.25
2019-01-25T18:38:31.987Z,-0.15
2019-01-25T18:40:56.464Z,-1.08
2019-01-25T18:43:20.919Z,-0.78
2019-01-25T18:45:45.355Z,-0.49
2019-01-25T18:48:09.877Z,-0.46
2019-01-25T18:50:34.294Z,-0.90
2019-01-25T18:53:11.340Z,-0.47
2019-01-25T18:55:35.765Z,-0.74
2019-01-25T18:58:00.212Z,-0.72
2019-01-25T19:00:26.005Z,-0.98
2019-01-25T19:02:56.228Z,-0.81
2019-01-25T19:08:37.155Z,-0.38
2019-01-25T19:11:01.570Z,-0.59
2019-01-25T19:13:26.019Z,-0.44
2019-01-25T19:15:50.524Z,-0.99
2019-01-25T19:18:14.950Z,-0.76
2019-01-25T19:20:39.373Z,-0.79
2019-01-25T19:23:03.866Z,-1.16
2019-01-25T19:25:28.301Z,-0.83
2019-01-25T19:27:52.763Z,-1.06
2019-01-25T19:30:37.898Z,-0.75
2019-01-25T19:33:02.496Z,-1.12
2019-01-25T19:35:38.877Z,-0.48
2019-01-25T19:38:29.823Z,-0.94
2019-01-25T19:40:54.283Z,-0.68
2019-01-25T19:43:18.780Z,-0.17
2019-01-25T19:45:43.226Z,-0.22
2019-01-25T19:48:07.797Z,-0.17
2019-01-25T19:50:32.273Z,-0.80
2019-01-25T19:52:56.679Z,-0.47
2019-01-25T19:58:17.581Z,-0.87
2019-01-25T20:03:38.554Z,-0.83
2019-01-25T20:08:39.589Z,-0.57
2019-01-25T20:11:04.103Z,-1.05
2019-01-25T20:13:28.542Z,-0.59
2019-01-25T20:15:52.975Z,-0.32
2019-01-25T20:18:17.422Z,-1.02
2019-01-25T20:20:41.920Z,-0.73
2019-01-25T20:26:03.406Z,-0.96
2019-01-25T20:28:30.834Z,-0.80
2019-01-25T20:30:55.268Z,-1.13
2019-01-25T20:33:19.698Z,-0.78
2019-01-25T20:38:40.907Z,-1.01
2019-01-25T20:41:05.315Z,-0.83
2019-01-25T20:43:29.766Z,-0.94
2019-01-25T20:45:54.265Z,-0.62
2019-01-25T20:48:18.699Z,-0.89
2019-01-25T20:50:43.174Z,-1.04
2019-01-25T20:59:01.354Z,-0.26
2019-01-25T21:01:25.797Z,-0.57
2019-01-25T21:03:50.209Z,-0.63
2019-01-25T21:06:16.756Z,-0.68
2019-01-25T21:08:41.212Z,-0.59
2019-01-25T21:11:05.813Z,-0.51
2019-01-25T21:13:30.302Z,-0.33
2019-01-25T21:15:54.756Z,-0.36
2019-01-25T21:18:19.196Z,-0.32
2019-01-25T21:23:40.945Z,-0.52
2019-01-25T21:26:05.431Z,-0.28
2019-01-25T21:28:29.860Z,-0.65
2019-01-25T21:30:54.282Z,-0.57
2019-01-25T21:33:18.702Z,-0.09
2019-01-25T21:35:43.115Z,-0.51
2019-01-25T21:38:07.781Z,-0.39
2019-01-25T21:43:29.073Z,-0.52
2019-01-25T21:45:53.520Z,-0.78
2019-01-25T21:48:17.944Z,-0.31
2019-01-25T21:51:03.168Z,-0.54
2019-01-25T21:53:27.648Z,-0.24
2019-01-25T21:55:52.100Z,-0.21
2019-01-25T21:58:16.570Z,0.19
2019-01-25T22:00:41.051Z,-0.25
2019-01-25T22:06:02.067Z,0.05
2019-01-25T22:08:26.572Z,0.06
2019-01-25T22:10:50.984Z,-0.22
2019-01-25T22:13:15.463Z,0.20
2019-01-25T22:15:39.907Z,-0.14
2019-01-25T22:18:15.334Z,-0.14
2019-01-25T22:20:39.942Z,0.20
2019-01-25T22:23:16.993Z,-0.13
2019-01-25T22:25:41.562Z,-0.08
2019-01-25T22:28:05.983Z,-0.31
2019-01-25T22:30:30.418Z,-0.20
2019-01-25T22:35:51.599Z,0.37
2019-01-25T22:38:16.025Z,0.12
2019-01-25T22:40:40.445Z,0.11
2019-01-25T22:43:05.522Z,0.36
2019-01-25T22:45:36.545Z,0.08
2019-01-25T22:48:01.160Z,0.06
2019-01-25T22:53:23.017Z,0.28
2019-01-25T22:55:47.420Z,0.28
2019-01-25T22:58:11.966Z,0.37
2019-01-25T23:06:47.585Z,0.69
2019-01-25T23:12:09.268Z,0.74
2019-01-25T23:14:33.732Z,0.60
2019-01-25T23:16:58.152Z,0.59
2019-01-25T23:19:22.614Z,0.64
2019-01-25T23:21:47.019Z,0.73
2019-01-25T23:24:11.431Z,0.57
2019-01-25T23:29:23.108Z,0.67
2019-01-25T23:31:47.601Z,0.84
2019-01-25T23:34:11.989Z,0.91
2019-01-25T23:36:36.385Z,0.71
2019-01-25T23:39:00.810Z,0.70
2019-01-25T23:41:25.219Z,0.83
2019-01-25T23:43:49.639Z,0.86
2019-01-25T23:46:14.156Z,1.13
2019-01-25T23:48:38.544Z,0.90
2019-01-25T23:51:02.948Z,1.25
2019-01-25T23:53:27.347Z,1.25
2019-01-25T23:55:51.753Z,1.61
2019-01-25T23:58:16.161Z,1.53
